Huntley, MT (59037)

3:13 AM MDT on June 25, 2017 (GMT -0600)
Homer Davis Larimer | | Change Station

Elev 3145 ft 45.91 °N, 108.40 °W | Updated 25 seconds ago

Clear
Clear
56.7 °F
Feels Like 56.7 °F
N
0.0
Wind Variable Wind from SSW

Today
High -- | Low -- °F
--% Chance of Precip.
Yesterday
High -- | Low -- °F
Precip. -- in
Pressure 30.26 in
Visibility 10.0 miles
Clouds Mostly Cloudy 10000 ft
Dew Point 43 °F
Humidity 60%
Rainfall 0.00 in
Snow Depth Not available.
5:24 AM 9:07 PM
New Moon, 2% visible
METAR KBIL 250853Z 34004KT 10SM BKN100 14/04 A3032 RMK AO2 RAB12E18 SLP246 P0000 60000 T01390039 58004
Pressure 30.26 in
Visibility 10.0 miles
Clouds Mostly Cloudy 10000 ft
Dew Point 43 °F
Humidity 60%
Rainfall 0.00 in
Snow Depth Not available.
5:24 AM 9:07 PM
New Moon, 2% visible
METAR KBIL 250853Z 34004KT 10SM BKN100 14/04 A3032 RMK AO2 RAB12E18 SLP246 P0000 60000 T01390039 58004

Get Severe Weather Alerts

Thanks for signing up!

Be on the lookout for a verification email in your inbox.

You'll start receiving the daily forecast at 6 AM.

×

10-Day Weather Forecast

Almanac

Astronomy

Jun. 25, 2017 Rise Set
Actual Time
Civil Twilight
Nautical Twilight
Astronomical Twilight
Moon
Length of Visible Light
Length of Day
Tomorrow will be .
, % of the Moon is Illuminated

Today's Extremes

State Highs State Lows

Community

WunderPhotos

Category 6

Welcome to Category 6. This is the collective home for Weather Underground's featured writeups by Dr. Jeff Masters (right), Bob Henson (left), Chris Burt, and other regular contributors.

Nearby

Air Quality

  Air Quality AQ Index Pollutant
Not available.

Snow Depth

Station Depth Elevation

Earthquake Activity

City Distance Mag. Time & Date
Minimum magnitude displayed is 2.5.

Coastal Water Temperatures

Place Temperature

Stations

Nearby Weather Stations

Station Location Temp. Windchill Dew Point Humidity Wind Precip. Elev Updated Type
                   

Watches & Warnings

There are currently no watches in effect.